createdAt,value
2023-04-03T00:02:12.645Z,4.93
2023-04-03T00:05:54.543Z,4.40
2023-04-03T00:09:36.260Z,4.90
2023-04-03T00:13:18.299Z,6.57
2023-04-03T00:17:00.173Z,4.38
2023-04-03T00:20:42.031Z,4.80
2023-04-03T00:24:23.784Z,4.47
2023-04-03T00:28:06.112Z,4.10
2023-04-03T00:31:47.836Z,4.38
2023-04-03T00:35:30.349Z,4.93
2023-04-03T00:39:12.126Z,5.30
2023-04-03T00:42:58.891Z,4.28
2023-04-03T00:46:40.892Z,4.57
2023-04-03T00:50:23.239Z,4.18
2023-04-03T00:54:07.456Z,4.70
2023-04-03T00:57:49.877Z,4.43
2023-04-03T01:01:32.812Z,4.15
2023-04-03T01:05:18.207Z,4.63
2023-04-03T01:09:01.177Z,4.90
2023-04-03T01:12:46.676Z,4.20
2023-04-03T01:16:31.262Z,4.72
2023-04-03T01:20:32.069Z,4.40
2023-04-03T01:24:26.298Z,5.43
2023-04-03T01:28:11.638Z,4.32
2023-04-03T01:32:04.161Z,4.43
2023-04-03T01:35:46.078Z,4.20
2023-04-03T01:39:28.047Z,4.50
2023-04-03T01:43:09.777Z,4.30
2023-04-03T01:46:51.539Z,4.78
2023-04-03T01:50:33.346Z,5.03
2023-04-03T01:54:15.441Z,4.75
2023-04-03T01:57:57.218Z,4.40
2023-04-03T02:01:39.056Z,3.90
2023-04-03T02:05:20.905Z,4.22
2023-04-03T02:09:02.635Z,4.05
2023-04-03T02:12:44.387Z,4.00
2023-04-03T02:16:26.157Z,4.18
2023-04-03T02:20:08.592Z,4.43
2023-04-03T02:23:50.713Z,4.22
2023-04-03T02:27:32.780Z,4.22
2023-04-03T02:31:14.862Z,4.55
2023-04-03T02:34:57.028Z,4.95
2023-04-03T02:38:38.882Z,4.18
2023-04-03T02:42:20.796Z,4.43
2023-04-03T02:46:02.613Z,4.55
2023-04-03T02:49:47.079Z,4.25
2023-04-03T02:53:28.948Z,4.20
2023-04-03T02:57:11.135Z,5.05
2023-04-03T03:00:52.918Z,4.35
2023-04-03T03:04:34.952Z,4.28
2023-04-03T03:08:16.893Z,5.50
2023-04-03T03:11:58.663Z,4.75
2023-04-03T03:15:40.458Z,4.70
2023-04-03T03:19:22.201Z,4.38
2023-04-03T03:23:04.018Z,4.30
2023-04-03T03:26:45.845Z,4.85
2023-04-03T03:30:27.593Z,3.75
2023-04-03T03:34:09.437Z,3.72
2023-04-03T03:37:51.195Z,4.40
2023-04-03T03:41:32.996Z,4.32
2023-04-03T03:45:14.766Z,4.20
2023-04-03T03:48:56.592Z,4.25
2023-04-03T03:52:38.362Z,4.45
2023-04-03T03:56:20.074Z,4.45
2023-04-03T04:00:01.832Z,3.88
2023-04-03T04:03:43.705Z,4.72
2023-04-03T04:07:25.613Z,4.60
2023-04-03T04:11:07.878Z,4.65
2023-04-03T04:14:49.663Z,5.30
2023-04-03T04:18:31.587Z,5.47
2023-04-03T04:22:13.409Z,6.03
2023-04-03T04:25:55.239Z,5.28
2023-04-03T04:29:38.216Z,6.70
2023-04-03T04:33:20.049Z,5.55
2023-04-03T04:37:01.944Z,4.85
2023-04-03T04:40:43.764Z,6.05
2023-04-03T04:44:25.523Z,4.40
2023-04-03T04:48:07.254Z,4.63
2023-04-03T04:51:52.277Z,4.10
2023-04-03T04:55:34.654Z,3.95
2023-04-03T04:59:16.768Z,4.53
2023-04-03T05:02:58.484Z,4.18
2023-04-03T05:06:40.663Z,4.25
2023-04-03T05:10:22.379Z,4.18
2023-04-03T05:14:06.317Z,4.28
2023-04-03T05:17:48.163Z,4.47
2023-04-03T05:21:33.236Z,3.45
2023-04-03T05:25:15.242Z,3.63
2023-04-03T05:28:57.136Z,4.10
2023-04-03T05:32:38.919Z,4.03
2023-04-03T05:36:20.941Z,4.63
2023-04-03T05:40:04.420Z,4.20
2023-04-03T05:43:46.222Z,4.50
2023-04-03T05:47:27.986Z,4.25
2023-04-03T05:51:18.058Z,4.70
2023-04-03T05:54:59.760Z,5.68
2023-04-03T05:58:41.586Z,4.35
2023-04-03T06:02:25.059Z,5.30
2023-04-03T06:09:49.364Z,4.65
2023-04-03T06:13:31.162Z,5.15
2023-04-03T06:17:13.369Z,5.20
2023-04-03T06:20:55.340Z,6.07
2023-04-03T06:24:38.086Z,5.28
2023-04-03T06:28:20.390Z,5.50
2023-04-03T06:32:02.275Z,5.05
2023-04-03T06:35:43.984Z,5.10
2023-04-03T06:39:25.910Z,5.10
2023-04-03T06:43:08.315Z,5.07
2023-04-03T06:46:50.086Z,5.45
2023-04-03T06:50:32.055Z,5.28
2023-04-03T06:54:13.777Z,4.93
2023-04-03T06:57:55.613Z,4.85
2023-04-03T07:01:37.422Z,4.90
2023-04-03T07:05:19.538Z,4.93
2023-04-03T07:09:02.018Z,4.32
2023-04-03T07:12:43.863Z,5.90
2023-04-03T07:16:25.775Z,4.28
2023-04-03T07:20:08.553Z,4.43
2023-04-03T07:23:50.297Z,4.13
2023-04-03T07:27:32.054Z,4.35
2023-04-03T07:31:17.848Z,4.20
2023-04-03T07:35:00.595Z,4.30
2023-04-03T07:38:43.482Z,4.25
2023-04-03T07:42:25.702Z,4.88
2023-04-03T07:46:07.659Z,4.13
2023-04-03T07:49:49.404Z,3.85
2023-04-03T07:53:31.234Z,3.95
2023-04-03T07:57:17.720Z,4.13
2023-04-03T08:01:00.711Z,3.70
2023-04-03T08:04:42.566Z,4.00
2023-04-03T08:08:24.438Z,3.92
2023-04-03T08:12:06.259Z,3.92
2023-04-03T08:15:48.369Z,3.65
2023-04-03T08:19:30.090Z,3.45
2023-04-03T08:23:12.212Z,4.35
2023-04-03T08:26:53.936Z,3.35
2023-04-03T08:30:37.011Z,3.35
2023-04-03T08:34:19.315Z,3.58
2023-04-03T08:38:01.904Z,2.72
2023-04-03T08:41:47.431Z,3.97
2023-04-03T08:45:35.409Z,3.10
2023-04-03T08:49:30.587Z,2.97
2023-04-03T08:53:18.272Z,2.88
2023-04-03T08:57:03.540Z,3.15
2023-04-03T09:00:48.392Z,3.33
2023-04-03T09:04:36.058Z,3.00
2023-04-03T09:08:30.559Z,3.45
2023-04-03T09:12:15.942Z,3.72
2023-04-03T09:15:58.041Z,3.17
2023-04-03T09:19:55.527Z,3.05
2023-04-03T09:23:53.222Z,3.13
2023-04-03T09:27:35.133Z,3.60
2023-04-03T09:31:29.000Z,4.00
2023-04-03T09:35:27.328Z,4.13
2023-04-03T09:39:22.800Z,4.45
2023-04-03T09:43:31.932Z,6.40
2023-04-03T09:47:24.945Z,4.93
2023-04-03T09:51:16.382Z,4.97
2023-04-03T09:55:14.448Z,4.88
2023-04-03T09:59:05.213Z,4.03
2023-04-03T10:02:52.297Z,5.32
2023-04-03T10:06:37.164Z,4.68
2023-04-03T10:10:23.785Z,5.20
2023-04-03T10:14:07.900Z,4.75
2023-04-03T10:17:54.629Z,5.40
2023-04-03T10:21:55.612Z,4.70
2023-04-03T10:25:44.896Z,5.40
2023-04-03T10:29:42.703Z,4.60
2023-04-03T10:33:49.050Z,5.70
2023-04-03T10:37:51.864Z,5.38
2023-04-03T10:41:54.180Z,5.97
2023-04-03T10:45:52.816Z,5.30
2023-04-03T10:49:39.125Z,6.07
2023-04-03T10:53:33.677Z,6.65
2023-04-03T10:57:15.857Z,6.10
2023-04-03T11:01:06.508Z,5.97
2023-04-03T11:04:54.398Z,5.45
2023-04-03T11:08:45.591Z,6.43
2023-04-03T11:12:37.305Z,7.63
2023-04-03T11:16:27.022Z,6.07
2023-04-03T11:20:34.238Z,7.38
2023-04-03T11:24:26.303Z,6.47
2023-04-03T11:28:14.216Z,6.32
2023-04-03T11:31:59.153Z,7.65
2023-04-03T11:35:51.162Z,6.45
2023-04-03T11:39:35.376Z,8.13
2023-04-03T11:43:23.065Z,6.32
2023-04-03T11:47:06.730Z,6.05
2023-04-03T11:50:49.516Z,6.72
2023-04-03T11:54:46.722Z,6.43
2023-04-03T11:58:34.364Z,6.10
2023-04-03T12:02:51.183Z,6.22
2023-04-03T12:06:36.944Z,5.75
2023-04-03T12:10:30.906Z,6.10
2023-04-03T12:14:18.100Z,4.63
2023-04-03T12:18:00.067Z,5.88
2023-04-03T12:21:47.665Z,5.93
2023-04-03T12:25:50.801Z,5.70
2023-04-03T12:29:33.353Z,5.18
2023-04-03T12:33:29.275Z,5.97
2023-04-03T12:37:41.850Z,6.35
2023-04-03T12:41:42.545Z,5.25
2023-04-03T12:45:26.631Z,6.63
2023-04-03T12:49:38.294Z,5.80
2023-04-03T12:53:39.578Z,6.00
2023-04-03T12:57:28.743Z,5.88
2023-04-03T13:01:15.020Z,7.22
2023-04-03T13:05:00.511Z,6.60
2023-04-03T13:08:50.771Z,6.28
2023-04-03T13:12:32.610Z,6.15
2023-04-03T13:16:18.139Z,7.10
2023-04-03T13:20:23.514Z,7.32
2023-04-03T13:24:14.725Z,7.93
2023-04-03T13:31:45.445Z,7.20
2023-04-03T13:35:41.976Z,7.65
2023-04-03T13:39:36.215Z,8.07
2023-04-03T13:43:30.472Z,7.70
2023-04-03T13:47:12.332Z,7.90
2023-04-03T13:51:04.369Z,8.80
2023-04-03T13:54:48.508Z,7.88
2023-04-03T13:58:32.432Z,7.93
2023-04-03T14:02:20.177Z,7.20
2023-04-03T14:06:02.808Z,7.43
2023-04-03T14:09:44.728Z,7.90
2023-04-03T14:13:26.578Z,7.05
2023-04-03T14:17:24.756Z,7.82
2023-04-03T14:21:07.181Z,8.85
2023-04-03T14:24:50.278Z,7.55
2023-04-03T14:28:33.471Z,7.05
2023-04-03T14:35:58.514Z,7.45
2023-04-03T14:39:41.130Z,7.07
2023-04-03T14:43:23.149Z,7.22
2023-04-03T14:47:05.037Z,7.28
2023-04-03T14:50:58.235Z,6.78
2023-04-03T14:54:47.297Z,7.22
2023-04-03T14:58:29.115Z,7.30
2023-04-03T15:02:23.274Z,6.90
2023-04-03T15:06:05.247Z,7.80
2023-04-03T15:09:47.122Z,7.43
2023-04-03T15:13:28.941Z,6.95
2023-04-03T15:17:17.706Z,6.90
2023-04-03T15:20:59.402Z,6.18
2023-04-03T15:24:41.329Z,7.38
2023-04-03T15:28:31.021Z,7.28
2023-04-03T15:32:13.496Z,7.20
2023-04-03T15:36:02.988Z,7.65
2023-04-03T15:39:49.552Z,7.32
2023-04-03T15:43:31.918Z,7.15
2023-04-03T15:47:14.354Z,6.17
2023-04-03T15:50:57.197Z,7.05
2023-04-03T15:54:39.685Z,6.25
2023-04-03T15:58:21.759Z,6.50
2023-04-03T16:02:06.512Z,6.40
2023-04-03T16:05:48.913Z,7.22
2023-04-03T16:09:33.700Z,7.30
2023-04-03T16:13:16.322Z,7.35
2023-04-03T16:16:59.992Z,6.07
2023-04-03T16:20:41.937Z,6.05
2023-04-03T16:24:24.223Z,6.80
2023-04-03T16:28:06.221Z,6.28
2023-04-03T16:31:48.230Z,6.03
2023-04-03T16:35:30.968Z,6.50
2023-04-03T16:39:12.757Z,6.32
2023-04-03T16:42:54.496Z,6.90
2023-04-03T16:46:36.470Z,6.50
2023-04-03T16:50:18.435Z,6.75
2023-04-03T16:54:00.540Z,6.03
2023-04-03T16:57:42.508Z,6.15
2023-04-03T17:01:24.412Z,5.82
2023-04-03T17:05:06.894Z,5.25
2023-04-03T17:08:50.182Z,5.60
2023-04-03T17:12:31.927Z,5.50
2023-04-03T17:16:16.641Z,4.82
2023-04-03T17:19:59.090Z,5.25
2023-04-03T17:23:45.314Z,4.93
2023-04-03T17:27:27.436Z,4.55
2023-04-03T17:31:09.277Z,5.20
2023-04-03T17:34:50.999Z,5.57
2023-04-03T17:38:34.032Z,4.97
2023-04-03T17:42:16.139Z,5.78
2023-04-03T17:46:05.743Z,4.93
2023-04-03T17:49:47.581Z,5.20
2023-04-03T17:53:29.372Z,6.03
2023-04-03T17:57:11.297Z,6.00
2023-04-03T18:00:54.282Z,5.97
2023-04-03T18:04:36.463Z,6.43
2023-04-03T18:08:18.454Z,6.32
2023-04-03T18:12:04.597Z,5.72
2023-04-03T18:15:46.539Z,5.97
2023-04-03T18:23:32.265Z,5.80
2023-04-03T18:27:16.400Z,5.88
2023-04-03T18:30:59.716Z,6.72
2023-04-03T18:38:23.188Z,7.20
2023-04-03T18:42:15.160Z,7.07
2023-04-03T18:45:57.239Z,6.65
2023-04-03T18:49:41.947Z,6.93
2023-04-03T18:53:23.698Z,7.00
2023-04-03T18:57:05.725Z,8.13
2023-04-03T19:00:47.475Z,9.48
2023-04-03T19:04:29.810Z,10.60
2023-04-03T19:08:11.653Z,10.73
2023-04-03T19:11:53.572Z,11.90
2023-04-03T19:15:35.572Z,11.75
2023-04-03T19:19:17.447Z,12.23
2023-04-03T19:22:59.459Z,15.07
2023-04-03T19:26:42.361Z,13.80
2023-04-03T19:30:25.129Z,15.45
2023-04-03T19:34:07.867Z,17.05
2023-04-03T19:37:51.105Z,18.02
2023-04-03T19:41:35.096Z,14.50
2023-04-03T19:45:18.133Z,14.98
2023-04-03T19:48:59.932Z,17.30
2023-04-03T19:52:41.797Z,16.70
2023-04-03T19:56:23.664Z,12.95
2023-04-03T20:00:06.433Z,12.02
2023-04-03T20:03:48.664Z,12.25
2023-04-03T20:07:30.417Z,10.80
2023-04-03T20:11:12.437Z,10.57
2023-04-03T20:14:54.274Z,7.35
2023-04-03T20:18:36.909Z,7.60
2023-04-03T20:22:18.693Z,6.30
2023-04-03T20:26:09.463Z,6.60
2023-04-03T20:29:53.799Z,5.70
2023-04-03T20:33:37.252Z,5.38
2023-04-03T20:37:22.237Z,5.90
2023-04-03T20:41:05.065Z,6.63
2023-04-03T20:44:46.882Z,6.40
2023-04-03T20:48:30.207Z,6.38
2023-04-03T20:56:01.317Z,7.20
2023-04-03T20:59:43.765Z,8.48
2023-04-03T21:03:27.327Z,8.90
2023-04-03T21:07:46.811Z,10.93
2023-04-03T21:12:06.236Z,11.30
2023-04-03T21:15:55.057Z,10.90
2023-04-03T21:19:43.158Z,10.73
2023-04-03T21:23:26.424Z,10.35
2023-04-03T21:27:08.431Z,9.13
2023-04-03T21:30:50.252Z,7.75
2023-04-03T21:34:32.489Z,7.63
2023-04-03T21:38:15.379Z,6.38
2023-04-03T21:41:57.309Z,6.65
2023-04-03T21:45:39.200Z,6.13
2023-04-03T21:49:25.331Z,6.10
2023-04-03T21:53:07.208Z,5.80
2023-04-03T21:56:49.391Z,5.80
2023-04-03T22:00:31.528Z,5.97
2023-04-03T22:04:13.382Z,5.72
2023-04-03T22:07:55.117Z,5.28
2023-04-03T22:11:41.307Z,5.70
2023-04-03T22:15:23.167Z,5.10
2023-04-03T22:19:04.926Z,5.35
2023-04-03T22:22:49.296Z,4.93
2023-04-03T22:26:31.204Z,4.90
2023-04-03T22:30:13.559Z,4.85
2023-04-03T22:33:56.161Z,5.03
2023-04-03T22:37:37.891Z,5.50
2023-04-03T22:41:19.682Z,4.97
2023-04-03T22:45:01.814Z,6.00
2023-04-03T22:48:45.309Z,5.70
2023-04-03T22:52:27.053Z,5.10
2023-04-03T22:56:08.972Z,4.43
2023-04-03T22:59:50.668Z,6.43
2023-04-03T23:03:33.038Z,5.10
2023-04-03T23:07:15.957Z,4.75
2023-04-03T23:10:58.600Z,4.25
2023-04-03T23:14:40.418Z,5.05
2023-04-03T23:18:22.868Z,4.25
2023-04-03T23:22:04.602Z,4.20
2023-04-03T23:25:51.081Z,3.63
2023-04-03T23:29:33.228Z,4.18
2023-04-03T23:33:15.478Z,3.75
2023-04-03T23:36:57.299Z,3.50
2023-04-03T23:40:39.322Z,3.80
2023-04-03T23:44:21.810Z,3.53
2023-04-03T23:48:03.794Z,3.42
2023-04-03T23:51:45.575Z,3.50
2023-04-03T23:55:27.604Z,4.82
2023-04-03T23:59:09.373Z,3.65
